首页
METAR-TAF:

METAR-TAF

机场 :

奧斯拉瓦河畔納梅什季, 捷克共和国

纬度: 49-09-57N, 经度: 16-07-30E, 海拔: 472米

当前天气观测

该预报发布于31分钟前的05:30 UTC
风速14节,风向西转西南
温度 7°C
湿度 76%
气压 1019 hPa
能见度10公里或以上
阴天层高于2700英尺

METAR: LKNA 230530Z 25014KT 9999 OVC027 07/03 Q1019 NOSIG RMK BLU BLU

时间: 07:01 (06:01 UTC)

预报

该预报发布于1小时和1分钟前的05:00 UTC
预报有效从23日的 06点(UTC)到 24日的 06点(UTC)
风速14节,风向西
能见度10公里或以上
多云层高于2500英尺
短暂存在
从 23日的 06点(UTC)到 23日的 12点(UTC)
风速16节,风向西转西北,有时为28节阵风
几率 30% :
短暂存在
从 23日的 10点(UTC)到 23日的 18点(UTC)
能見度: 8000
多云层高于2000英尺
成为
从 23日的 12点(UTC)到 23日的 14点(UTC)
风速20节,风向西转西北,有时为38节阵风
短暂存在
从 23日的 18点(UTC)到 24日的 02点(UTC)
风速26节,风向西转西北,有时为58节阵风
能見度: 4000
多云层高于1500英尺, 塔状积云.
阵雨
成为
从 24日的 02点(UTC)到 24日的 04点(UTC)
风速14节,风向北转西北,有时为26节阵风
散云层高于3000英尺

TAF: LKNA 230500Z 2306/2406 27014KT 9999 BKN025 TEMPO 2306/2312 29016G28KT PROB30 TEMPO 2310/2318 8000 RA BKN020 BECMG 2312/2314 29020G38KT TEMPO 2318/2402 30026G58KT 4000 SHRA BKN015TCU BECMG 2402/2404 33014G26KT SCT030

超过4000个机场的气象观测和天气预报(METAR&TAF报告)。

可查询的气象台以黄色和红色小点在地图上表示。

将鼠标移到小点上方,可查看气象台名称。

然后点击查看天气观测和预报。

如需切换地图:点击带黑十字的绿色按钮放大地图;点击带横线的绿色按钮缩小地图;或者点击绿色箭头查看邻近地区的地图。


METAR-TAF: